sensor_id;sensor_type;location;lat;lon;timestamp;pressure;altitude;pressure_sealevel;temperature;humidity
37078;BME280;22989;55.998;37.212;2023-12-20T00:00:24;41666.72;;;-145.39;66.87
37078;BME280;22989;55.998;37.212;2023-12-20T00:02:50;41653.06;;;-145.39;66.97
37078;BME280;22989;55.998;37.212;2023-12-20T00:05:15;41637.44;;;-145.39;66.78
37078;BME280;22989;55.998;37.212;2023-12-20T00:07:41;41662.81;;;-145.39;67.00
37078;BME280;22989;55.998;37.212;2023-12-20T00:10:07;41653.06;;;-145.39;66.88
37078;BME280;22989;55.998;37.212;2023-12-20T00:12:33;41637.44;;;-145.39;66.92
37078;BME280;22989;55.998;37.212;2023-12-20T00:14:58;41615.97;;;-145.39;66.93
37078;BME280;22989;55.998;37.212;2023-12-20T00:17:24;41643.28;;;-145.39;67.00
37078;BME280;22989;55.998;37.212;2023-12-20T00:19:49;41651.09;;;-145.39;66.89
37078;BME280;22989;55.998;37.212;2023-12-20T00:22:15;41619.88;;;-145.39;66.90
37078;BME280;22989;55.998;37.212;2023-12-20T00:24:40;41633.53;;;-145.39;66.78
37078;BME280;22989;55.998;37.212;2023-12-20T00:27:06;41576.91;;;-145.39;66.90
37078;BME280;22989;55.998;37.212;2023-12-20T00:29:32;41615.97;;;-145.39;66.80
37078;BME280;22989;55.998;37.212;2023-12-20T00:31:57;41596.44;;;-145.39;66.87
37078;BME280;22989;55.998;37.212;2023-12-20T00:34:23;41635.50;;;-145.39;66.76
37078;BME280;22989;55.998;37.212;2023-12-20T00:36:48;41610.09;;;-145.39;66.61
37078;BME280;22989;55.998;37.212;2023-12-20T00:39:14;41619.88;;;-145.39;66.76
37078;BME280;22989;55.998;37.212;2023-12-20T00:41:39;41596.44;;;-145.39;66.79
37078;BME280;22989;55.998;37.212;2023-12-20T00:44:05;41604.25;;;-145.39;66.65
37078;BME280;22989;55.998;37.212;2023-12-20T00:46:30;41627.69;;;-145.39;66.77
37078;BME280;22989;55.998;37.212;2023-12-20T00:48:56;41600.34;;;-145.39;66.45
37078;BME280;22989;55.998;37.212;2023-12-20T00:51:22;41639.38;;;-145.39;66.66
37078;BME280;22989;55.998;37.212;2023-12-20T00:53:49;41614.00;;;-145.39;66.45
37078;BME280;22989;55.998;37.212;2023-12-20T00:56:15;41559.34;;;-145.39;66.46
37078;BME280;22989;55.998;37.212;2023-12-20T00:58:40;41621.81;;;-145.39;66.52
37078;BME280;22989;55.998;37.212;2023-12-20T01:01:06;41629.63;;;-145.39;66.48
37078;BME280;22989;55.998;37.212;2023-12-20T01:03:32;41655.00;;;-145.39;66.44
37078;BME280;22989;55.998;37.212;2023-12-20T01:05:57;41617.91;;;-145.39;66.41
37078;BME280;22989;55.998;37.212;2023-12-20T01:08:23;41608.16;;;-145.39;66.50
37078;BME280;22989;55.998;37.212;2023-12-20T01:10:48;41615.97;;;-145.39;66.43
37078;BME280;22989;55.998;37.212;2023-12-20T01:13:14;41658.91;;;-145.39;66.34
37078;BME280;22989;55.998;37.212;2023-12-20T01:15:39;41662.81;;;-145.39;66.36
37078;BME280;22989;55.998;37.212;2023-12-20T01:18:05;41651.09;;;-145.39;66.39
37078;BME280;22989;55.998;37.212;2023-12-20T01:20:31;41666.72;;;-145.39;66.32
37078;BME280;22989;55.998;37.212;2023-12-20T01:22:56;41637.44;;;-145.39;66.32
37078;BME280;22989;55.998;37.212;2023-12-20T01:25:22;41658.91;;;-145.39;66.33
37078;BME280;22989;55.998;37.212;2023-12-20T01:27:47;41656.97;;;-145.39;66.33
37078;BME280;22989;55.998;37.212;2023-12-20T01:30:13;41668.66;;;-145.39;66.36
37078;BME280;22989;55.998;37.212;2023-12-20T01:32:39;41664.78;;;-145.39;66.51
37078;BME280;22989;55.998;37.212;2023-12-20T01:35:04;41649.16;;;-145.39;66.29
37078;BME280;22989;55.998;37.212;2023-12-20T01:37:30;41643.28;;;-145.39;66.26
37078;BME280;22989;55.998;37.212;2023-12-20T01:39:55;41662.81;;;-145.39;66.36
37078;BME280;22989;55.998;37.212;2023-12-20T01:42:21;41621.81;;;-145.39;66.28
37078;BME280;22989;55.998;37.212;2023-12-20T01:44:47;41641.34;;;-145.39;66.29
37078;BME280;22989;55.998;37.212;2023-12-20T01:47:13;41614.00;;;-145.39;66.48
37078;BME280;22989;55.998;37.212;2023-12-20T01:49:39;41637.44;;;-145.39;66.47
37078;BME280;22989;55.998;37.212;2023-12-20T01:52:05;41643.28;;;-145.39;66.29
37078;BME280;22989;55.998;37.212;2023-12-20T01:54:31;41637.44;;;-145.39;66.32
37078;BME280;22989;55.998;37.212;2023-12-20T01:56:57;41615.97;;;-145.39;66.24
37078;BME280;22989;55.998;37.212;2023-12-20T01:59:22;41645.25;;;-145.39;66.10
37078;BME280;22989;55.998;37.212;2023-12-20T02:01:48;41633.53;;;-145.39;66.05
37078;BME280;22989;55.998;37.212;2023-12-20T02:04:15;41670.63;;;-145.39;66.06
37078;BME280;22989;55.998;37.212;2023-12-20T02:06:42;41660.88;;;-145.39;65.95
37078;BME280;22989;55.998;37.212;2023-12-20T02:09:09;41643.28;;;-145.39;65.97
37078;BME280;22989;55.998;37.212;2023-12-20T02:11:35;41676.47;;;-145.39;66.01
37078;BME280;22989;55.998;37.212;2023-12-20T02:14:01;41672.56;;;-145.39;65.93
37078;BME280;22989;55.998;37.212;2023-12-20T02:16:27;41633.53;;;-145.39;66.08
37078;BME280;22989;55.998;37.212;2023-12-20T02:18:52;41684.28;;;-145.39;66.12
37078;BME280;22989;55.998;37.212;2023-12-20T02:21:24;41674.53;;;-145.39;66.05
37078;BME280;22989;55.998;37.212;2023-12-20T02:23:50;41660.88;;;-145.39;66.20
37078;BME280;22989;55.998;37.212;2023-12-20T02:26:16;41629.63;;;-145.39;66.19
37078;BME280;22989;55.998;37.212;2023-12-20T02:28:42;41627.69;;;-145.39;66.17
37078;BME280;22989;55.998;37.212;2023-12-20T02:31:07;41614.00;;;-145.39;66.15
37078;BME280;22989;55.998;37.212;2023-12-20T02:33:33;41643.28;;;-145.39;66.12
37078;BME280;22989;55.998;37.212;2023-12-20T02:35:58;41615.97;;;-145.39;66.10
37078;BME280;22989;55.998;37.212;2023-12-20T02:38:24;41586.69;;;-145.39;65.99
37078;BME280;22989;55.998;37.212;2023-12-20T02:40:49;41590.59;;;-145.39;66.05
37078;BME280;22989;55.998;37.212;2023-12-20T02:43:15;41604.25;;;-145.39;66.01
37078;BME280;22989;55.998;37.212;2023-12-20T02:45:40;41561.31;;;-145.39;65.98
37078;BME280;22989;55.998;37.212;2023-12-20T02:48:06;41637.44;;;-145.39;65.91
37078;BME280;22989;55.998;37.212;2023-12-20T02:50:32;41596.44;;;-145.39;65.86
37078;BME280;22989;55.998;37.212;2023-12-20T02:52:57;41582.78;;;-145.39;65.81
37078;BME280;22989;55.998;37.212;2023-12-20T02:55:23;41576.91;;;-145.39;65.77
37078;BME280;22989;55.998;37.212;2023-12-20T02:57:48;41582.78;;;-145.39;65.81
37078;BME280;22989;55.998;37.212;2023-12-20T03:00:14;41596.44;;;-145.39;65.73
37078;BME280;22989;55.998;37.212;2023-12-20T03:02:39;41561.31;;;-145.39;65.84
37078;BME280;22989;55.998;37.212;2023-12-20T03:05:05;41555.44;;;-145.39;65.76
37078;BME280;22989;55.998;37.212;2023-12-20T03:07:36;41537.88;;;-145.39;65.71
37078;BME280;22989;55.998;37.212;2023-12-20T03:10:03;41573.03;;;-145.39;65.79
37078;BME280;22989;55.998;37.212;2023-12-20T03:12:28;41551.53;;;-145.39;65.60
37078;BME280;22989;55.998;37.212;2023-12-20T03:14:54;41559.34;;;-145.39;65.57
37078;BME280;22989;55.998;37.212;2023-12-20T03:17:20;41557.41;;;-145.39;65.60
37078;BME280;22989;55.998;37.212;2023-12-20T03:19:46;41578.88;;;-145.39;65.56
37078;BME280;22989;55.998;37.212;2023-12-20T03:22:11;41592.53;;;-145.39;65.45
37078;BME280;22989;55.998;37.212;2023-12-20T03:24:37;41596.44;;;-145.39;65.57
37078;BME280;22989;55.998;37.212;2023-12-20T03:27:03;41574.97;;;-145.39;65.55
37078;BME280;22989;55.998;37.212;2023-12-20T03:29:28;41561.31;;;-145.39;65.56
37078;BME280;22989;55.998;37.212;2023-12-20T03:31:54;41555.44;;;-145.39;65.56
37078;BME280;22989;55.998;37.212;2023-12-20T03:34:19;41573.03;;;-145.39;65.51
37078;BME280;22989;55.998;37.212;2023-12-20T03:36:45;41582.78;;;-145.39;65.48
37078;BME280;22989;55.998;37.212;2023-12-20T03:39:13;41571.06;;;-145.39;65.48
37078;BME280;22989;55.998;37.212;2023-12-20T03:41:38;41565.22;;;-145.39;65.54
37078;BME280;22989;55.998;37.212;2023-12-20T03:44:04;41563.25;;;-145.39;65.73
37078;BME280;22989;55.998;37.212;2023-12-20T03:46:29;41569.13;;;-145.39;65.42
37078;BME280;22989;55.998;37.212;2023-12-20T03:48:55;41567.16;;;-145.39;65.54
37078;BME280;22989;55.998;37.212;2023-12-20T03:51:20;41530.06;;;-145.39;65.41
37078;BME280;22989;55.998;37.212;2023-12-20T03:53:46;41578.88;;;-145.39;65.54
37078;BME280;22989;55.998;37.212;2023-12-20T03:56:11;41578.88;;;-145.39;65.45
37078;BME280;22989;55.998;37.212;2023-12-20T03:58:37;41608.16;;;-145.39;65.46
37078;BME280;22989;55.998;37.212;2023-12-20T04:01:03;41561.31;;;-145.39;65.45
37078;BME280;22989;55.998;37.212;2023-12-20T04:03:28;41526.16;;;-145.39;65.33
37078;BME280;22989;55.998;37.212;2023-12-20T04:05:54;41586.69;;;-145.39;65.55
37078;BME280;22989;55.998;37.212;2023-12-20T04:08:20;41553.50;;;-145.39;65.45
37078;BME280;22989;55.998;37.212;2023-12-20T04:10:45;41561.31;;;-145.39;65.30
37078;BME280;22989;55.998;37.212;2023-12-20T04:13:11;41574.97;;;-145.39;65.16
37078;BME280;22989;55.998;37.212;2023-12-20T04:15:36;41545.69;;;-145.39;65.29
37078;BME280;22989;55.998;37.212;2023-12-20T04:18:02;41561.31;;;-145.39;65.26
37078;BME280;22989;55.998;37.212;2023-12-20T04:20:28;41553.50;;;-145.39;65.25
37078;BME280;22989;55.998;37.212;2023-12-20T04:22:53;41606.19;;;-145.39;65.21
37078;BME280;22989;55.998;37.212;2023-12-20T04:25:19;41551.53;;;-145.39;65.24
37078;BME280;22989;55.998;37.212;2023-12-20T04:27:44;41580.81;;;-145.39;65.21
37078;BME280;22989;55.998;37.212;2023-12-20T04:30:11;41551.53;;;-145.39;65.18
37078;BME280;22989;55.998;37.212;2023-12-20T04:32:37;41547.63;;;-145.39;65.16
37078;BME280;22989;55.998;37.212;2023-12-20T04:35:02;41573.03;;;-145.39;65.16
37078;BME280;22989;55.998;37.212;2023-12-20T04:37:28;41574.97;;;-145.39;65.13
37078;BME280;22989;55.998;37.212;2023-12-20T04:39:53;41573.03;;;-145.39;65.04
37078;BME280;22989;55.998;37.212;2023-12-20T04:42:20;41545.69;;;-145.39;65.15
37078;BME280;22989;55.998;37.212;2023-12-20T04:44:45;41606.19;;;-145.39;65.06
37078;BME280;22989;55.998;37.212;2023-12-20T04:47:11;41604.25;;;-145.39;64.98
37078;BME280;22989;55.998;37.212;2023-12-20T04:49:36;41592.53;;;-145.39;65.05
37078;BME280;22989;55.998;37.212;2023-12-20T04:52:02;41526.16;;;-145.39;65.03
37078;BME280;22989;55.998;37.212;2023-12-20T04:54:27;41610.09;;;-145.39;64.79
37078;BME280;22989;55.998;37.212;2023-12-20T04:56:53;41586.69;;;-145.39;64.90
37078;BME280;22989;55.998;37.212;2023-12-20T04:59:18;41600.34;;;-145.39;64.86
37078;BME280;22989;55.998;37.212;2023-12-20T05:01:44;41592.53;;;-145.39;64.85
37078;BME280;22989;55.998;37.212;2023-12-20T05:04:09;41615.97;;;-145.39;64.72
37078;BME280;22989;55.998;37.212;2023-12-20T05:06:35;41623.78;;;-145.39;64.70
37078;BME280;22989;55.998;37.212;2023-12-20T05:09:00;41588.63;;;-145.39;64.84
37078;BME280;22989;55.998;37.212;2023-12-20T05:11:26;41617.91;;;-145.39;64.82
37078;BME280;22989;55.998;37.212;2023-12-20T05:13:51;41561.31;;;-145.39;64.88
37078;BME280;22989;55.998;37.212;2023-12-20T05:16:17;41565.22;;;-145.39;64.79
37078;BME280;22989;55.998;37.212;2023-12-20T05:18:44;41604.25;;;-145.39;64.60
37078;BME280;22989;55.998;37.212;2023-12-20T05:21:10;41588.63;;;-145.39;64.69
37078;BME280;22989;55.998;37.212;2023-12-20T05:23:36;41612.06;;;-145.39;64.77
37078;BME280;22989;55.998;37.212;2023-12-20T05:26:01;41563.25;;;-145.39;64.67
37078;BME280;22989;55.998;37.212;2023-12-20T05:28:27;41614.00;;;-145.39;64.76
37078;BME280;22989;55.998;37.212;2023-12-20T05:30:53;41617.91;;;-145.39;64.59
37078;BME280;22989;55.998;37.212;2023-12-20T05:33:19;41643.28;;;-145.39;64.60
37078;BME280;22989;55.998;37.212;2023-12-20T05:35:44;41615.97;;;-145.39;64.48
37078;BME280;22989;55.998;37.212;2023-12-20T05:38:10;41666.72;;;-145.39;64.41
37078;BME280;22989;55.998;37.212;2023-12-20T05:40:35;41727.25;;;-145.39;64.35
37078;BME280;22989;55.998;37.212;2023-12-20T05:43:01;41776.03;;;-145.39;64.18
37078;BME280;22989;55.998;37.212;2023-12-20T05:45:27;41885.38;;;-145.39;64.13
37078;BME280;22989;55.998;37.212;2023-12-20T05:47:53;41949.78;;;-145.39;64.02
37078;BME280;22989;55.998;37.212;2023-12-20T05:50:19;42051.31;;;-145.39;64.06
37078;BME280;22989;55.998;37.212;2023-12-20T05:52:44;42117.69;;;-145.39;64.07
37078;BME280;22989;55.998;37.212;2023-12-20T05:55:10;42150.88;;;-145.39;64.05
37078;BME280;22989;55.998;37.212;2023-12-20T05:57:35;42271.94;;;-145.39;63.93
37078;BME280;22989;55.998;37.212;2023-12-20T06:00:01;42422.28;;;-145.39;63.87
37078;BME280;22989;55.998;37.212;2023-12-20T06:02:26;42506.25;;;-145.39;64.09
37078;BME280;22989;55.998;37.212;2023-12-20T06:04:52;42506.25;;;-145.39;63.88
37078;BME280;22989;55.998;37.212;2023-12-20T06:07:17;42558.97;;;-145.39;63.92
37078;BME280;22989;55.998;37.212;2023-12-20T06:09:43;42658.53;;;-145.39;63.93
37078;BME280;22989;55.998;37.212;2023-12-20T06:12:08;42822.56;;;-145.39;63.96
37078;BME280;22989;55.998;37.212;2023-12-20T06:14:34;42994.41;;;-145.39;63.93
37078;BME280;22989;55.998;37.212;2023-12-20T06:17:00;43017.84;;;-145.39;63.86
37078;BME280;22989;55.998;37.212;2023-12-20T06:19:27;43023.72;;;-145.39;63.81
37078;BME280;22989;55.998;37.212;2023-12-20T06:21:52;43045.19;;;-145.39;63.85
37078;BME280;22989;55.998;37.212;2023-12-20T06:24:18;43058.88;;;-145.39;63.76
37078;BME280;22989;55.998;37.212;2023-12-20T06:26:43;43242.44;;;-145.39;63.71
37078;BME280;22989;55.998;37.212;2023-12-20T06:29:09;43297.13;;;-145.39;63.65
37078;BME280;22989;55.998;37.212;2023-12-20T06:31:35;43318.59;;;-145.39;63.68
37078;BME280;22989;55.998;37.212;2023-12-20T06:34:00;43416.25;;;-145.39;63.69
37078;BME280;22989;55.998;37.212;2023-12-20T06:36:26;43416.25;;;-145.39;63.54
37078;BME280;22989;55.998;37.212;2023-12-20T06:38:52;43340.09;;;-145.39;63.61
37078;BME280;22989;55.998;37.212;2023-12-20T06:41:18;43244.38;;;-145.39;63.62
37078;BME280;22989;55.998;37.212;2023-12-20T06:43:44;43146.75;;;-145.39;63.50
37078;BME280;22989;55.998;37.212;2023-12-20T06:46:10;43215.09;;;-145.39;63.62
37078;BME280;22989;55.998;37.212;2023-12-20T06:48:35;43129.16;;;-145.39;63.47
37078;BME280;22989;55.998;37.212;2023-12-20T06:51:01;43185.81;;;-145.39;63.47
37078;BME280;22989;55.998;37.212;2023-12-20T06:53:30;43179.94;;;-145.39;63.44
37078;BME280;22989;55.998;37.212;2023-12-20T06:55:56;43217.03;;;-145.39;63.40
37078;BME280;22989;55.998;37.212;2023-12-20T06:58:22;43217.03;;;-145.39;63.35
37078;BME280;22989;55.998;37.212;2023-12-20T07:00:48;43263.91;;;-145.39;63.39
37078;BME280;22989;55.998;37.212;2023-12-20T07:03:14;43295.16;;;-145.39;63.35
37078;BME280;22989;55.998;37.212;2023-12-20T07:05:39;43330.31;;;-145.39;63.28
37078;BME280;22989;55.998;37.212;2023-12-20T07:08:06;43328.38;;;-145.39;63.20
37078;BME280;22989;55.998;37.212;2023-12-20T07:10:32;43172.13;;;-145.39;63.03
37078;BME280;22989;55.998;37.212;2023-12-20T07:12:57;43220.94;;;-145.39;62.98
37078;BME280;22989;55.998;37.212;2023-12-20T07:15:23;43205.31;;;-145.39;63.06
37078;BME280;22989;55.998;37.212;2023-12-20T07:17:49;43224.84;;;-145.39;62.93
37078;BME280;22989;55.998;37.212;2023-12-20T07:20:15;43260.00;;;-145.39;62.70
37078;BME280;22989;55.998;37.212;2023-12-20T07:22:41;43215.09;;;-145.39;62.72
37078;BME280;22989;55.998;37.212;2023-12-20T07:25:07;43207.28;;;-145.39;62.68
37078;BME280;22989;55.998;37.212;2023-12-20T07:27:33;43193.63;;;-145.39;62.72
37078;BME280;22989;55.998;37.212;2023-12-20T07:29:58;43054.97;;;-145.39;62.62
37078;BME280;22989;55.998;37.212;2023-12-20T07:32:24;43107.69;;;-145.39;62.70
37078;BME280;22989;55.998;37.212;2023-12-20T07:34:50;43197.50;;;-145.39;62.64
37078;BME280;22989;55.998;37.212;2023-12-20T07:37:15;43267.81;;;-145.39;62.57
37078;BME280;22989;55.998;37.212;2023-12-20T07:39:41;43388.91;;;-145.39;62.50
37078;BME280;22989;55.998;37.212;2023-12-20T07:42:08;43457.25;;;-145.39;62.33
37078;BME280;22989;55.998;37.212;2023-12-20T07:44:34;43463.13;;;-145.39;62.35
37078;BME280;22989;55.998;37.212;2023-12-20T07:47:01;43699.44;;;-145.39;62.32
37078;BME280;22989;55.998;37.212;2023-12-20T07:49:27;43597.88;;;-145.39;62.27
37078;BME280;22989;55.998;37.212;2023-12-20T07:51:52;43504.13;;;-145.39;62.13
37078;BME280;22989;55.998;37.212;2023-12-20T07:54:18;43652.56;;;-145.39;61.98
37078;BME280;22989;55.998;37.212;2023-12-20T07:56:43;43582.25;;;-145.39;61.84
37078;BME280;22989;55.998;37.212;2023-12-20T07:59:09;43523.66;;;-145.39;61.80
37078;BME280;22989;55.998;37.212;2023-12-20T08:01:35;43455.31;;;-145.39;61.68
37078;BME280;22989;55.998;37.212;2023-12-20T08:04:01;43381.09;;;-145.39;61.60
37078;BME280;22989;55.998;37.212;2023-12-20T08:06:26;43359.63;;;-145.39;61.55
37078;BME280;22989;55.998;37.212;2023-12-20T08:08:52;43465.06;;;-145.39;61.39
37078;BME280;22989;55.998;37.212;2023-12-20T08:11:18;43468.97;;;-145.39;61.52
37078;BME280;22989;55.998;37.212;2023-12-20T08:13:43;43414.28;;;-145.39;61.45
37078;BME280;22989;55.998;37.212;2023-12-20T08:16:09;43416.25;;;-145.39;61.45
37078;BME280;22989;55.998;37.212;2023-12-20T08:18:35;43593.97;;;-145.39;61.42
37078;BME280;22989;55.998;37.212;2023-12-20T08:21:00;43586.16;;;-145.39;61.46
37078;BME280;22989;55.998;37.212;2023-12-20T08:23:27;43424.06;;;-145.39;61.37
37078;BME280;22989;55.998;37.212;2023-12-20T08:25:52;43455.31;;;-145.39;61.31
37078;BME280;22989;55.998;37.212;2023-12-20T08:28:18;43451.41;;;-145.39;61.20
37078;BME280;22989;55.998;37.212;2023-12-20T08:30:46;43342.03;;;-145.39;61.24
37078;BME280;22989;55.998;37.212;2023-12-20T08:33:11;43394.78;;;-145.39;61.05
37078;BME280;22989;55.998;37.212;2023-12-20T08:35:39;43435.78;;;-145.39;61.13
37078;BME280;22989;55.998;37.212;2023-12-20T08:38:05;43451.41;;;-145.39;61.02
37078;BME280;22989;55.998;37.212;2023-12-20T08:40:31;43426.00;;;-145.39;60.90
37078;BME280;22989;55.998;37.212;2023-12-20T08:42:57;43474.84;;;-145.39;60.96
37078;BME280;22989;55.998;37.212;2023-12-20T08:45:22;43504.13;;;-145.39;60.98
37078;BME280;22989;55.998;37.212;2023-12-20T08:47:48;43515.84;;;-145.39;61.02
37078;BME280;22989;55.998;37.212;2023-12-20T08:50:13;43508.03;;;-145.39;60.96
37078;BME280;22989;55.998;37.212;2023-12-20T08:52:40;43445.53;;;-145.39;60.98
37078;BME280;22989;55.998;37.212;2023-12-20T08:55:06;43435.78;;;-145.39;60.88
37078;BME280;22989;55.998;37.212;2023-12-20T08:57:32;43500.22;;;-145.39;60.87
37078;BME280;22989;55.998;37.212;2023-12-20T08:59:59;43552.97;;;-145.39;60.74
37078;BME280;22989;55.998;37.212;2023-12-20T09:02:24;43508.03;;;-145.39;60.78
37078;BME280;22989;55.998;37.212;2023-12-20T09:04:50;43511.94;;;-145.39;60.65
37078;BME280;22989;55.998;37.212;2023-12-20T09:07:23;43416.25;;;-145.39;60.83
37078;BME280;22989;55.998;37.212;2023-12-20T09:09:48;43271.72;;;-145.39;60.76
37078;BME280;22989;55.998;37.212;2023-12-20T09:12:14;43392.81;;;-145.39;60.89
37078;BME280;22989;55.998;37.212;2023-12-20T09:14:40;43449.44;;;-145.39;60.69
37078;BME280;22989;55.998;37.212;2023-12-20T09:17:06;43486.56;;;-145.39;60.76
37078;BME280;22989;55.998;37.212;2023-12-20T09:19:34;43494.38;;;-145.39;60.74
37078;BME280;22989;55.998;37.212;2023-12-20T09:21:59;43502.19;;;-145.39;60.59
37078;BME280;22989;55.998;37.212;2023-12-20T09:24:25;43459.22;;;-145.39;60.56
37078;BME280;22989;55.998;37.212;2023-12-20T09:26:50;43388.91;;;-145.39;60.64
37078;BME280;22989;55.998;37.212;2023-12-20T09:29:16;43336.19;;;-145.39;60.46
37078;BME280;22989;55.998;37.212;2023-12-20T09:31:42;43312.75;;;-145.39;60.38
37078;BME280;22989;55.998;37.212;2023-12-20T09:34:09;43232.66;;;-145.39;60.27
37078;BME280;22989;55.998;37.212;2023-12-20T09:36:34;43174.09;;;-145.39;60.47
37078;BME280;22989;55.998;37.212;2023-12-20T09:39:02;43113.53;;;-145.39;60.21
37078;BME280;22989;55.998;37.212;2023-12-20T09:41:29;43152.59;;;-145.39;60.08
37078;BME280;22989;55.998;37.212;2023-12-20T09:43:58;43136.97;;;-145.39;60.09
37078;BME280;22989;55.998;37.212;2023-12-20T09:46:28;43187.75;;;-145.39;60.06
37078;BME280;22989;55.998;37.212;2023-12-20T09:48:59;43236.56;;;-145.39;60.10
37078;BME280;22989;55.998;37.212;2023-12-20T09:51:28;43232.66;;;-145.39;60.22
37078;BME280;22989;55.998;37.212;2023-12-20T09:53:54;43199.47;;;-145.39;60.13
37078;BME280;22989;55.998;37.212;2023-12-20T09:56:20;43172.13;;;-145.39;60.06
37078;BME280;22989;55.998;37.212;2023-12-20T09:58:46;43152.59;;;-145.39;60.08
37078;BME280;22989;55.998;37.212;2023-12-20T10:01:12;43201.41;;;-145.39;60.08
37078;BME280;22989;55.998;37.212;2023-12-20T10:03:39;43101.81;;;-145.39;60.18
37078;BME280;22989;55.998;37.212;2023-12-20T10:06:06;43080.34;;;-145.39;60.06
37078;BME280;22989;55.998;37.212;2023-12-20T10:08:32;43060.81;;;-145.39;60.06
37078;BME280;22989;55.998;37.212;2023-12-20T10:10:58;43051.06;;;-145.39;59.91
37078;BME280;22989;55.998;37.212;2023-12-20T10:13:28;43062.78;;;-145.39;60.05
37078;BME280;22989;55.998;37.212;2023-12-20T10:15:55;43193.63;;;-145.39;60.13
37078;BME280;22989;55.998;37.212;2023-12-20T10:18:21;43111.59;;;-145.39;60.17
37078;BME280;22989;55.998;37.212;2023-12-20T10:20:47;43144.78;;;-145.39;60.17
37078;BME280;22989;55.998;37.212;2023-12-20T10:23:15;43269.78;;;-145.39;60.11
37078;BME280;22989;55.998;37.212;2023-12-20T10:25:41;43219.00;;;-145.39;59.83
37078;BME280;22989;55.998;37.212;2023-12-20T10:28:15;43240.47;;;-145.39;59.87
37078;BME280;22989;55.998;37.212;2023-12-20T10:30:48;43205.31;;;-145.39;59.80
37078;BME280;22989;55.998;37.212;2023-12-20T10:33:13;43207.28;;;-145.39;59.98
37078;BME280;22989;55.998;37.212;2023-12-20T10:35:40;43219.00;;;-145.39;59.86
37078;BME280;22989;55.998;37.212;2023-12-20T10:38:06;43201.41;;;-145.39;59.91
37078;BME280;22989;55.998;37.212;2023-12-20T10:40:36;43230.72;;;-145.39;59.82
37078;BME280;22989;55.998;37.212;2023-12-20T10:43:04;43201.41;;;-145.39;59.65
37078;BME280;22989;55.998;37.212;2023-12-20T10:45:30;43230.72;;;-145.39;59.69
37078;BME280;22989;55.998;37.212;2023-12-20T10:47:57;43220.94;;;-145.39;59.74
37078;BME280;22989;55.998;37.212;2023-12-20T10:50:24;43273.69;;;-145.39;59.73
37078;BME280;22989;55.998;37.212;2023-12-20T10:52:50;43291.25;;;-145.39;59.65
37078;BME280;22989;55.998;37.212;2023-12-20T10:55:21;43246.34;;;-145.39;59.59
37078;BME280;22989;55.998;37.212;2023-12-20T10:57:49;43228.75;;;-145.39;59.69
37078;BME280;22989;55.998;37.212;2023-12-20T11:00:18;43209.22;;;-145.39;59.83
37078;BME280;22989;55.998;37.212;2023-12-20T11:02:44;43261.97;;;-145.39;59.56
37078;BME280;22989;55.998;37.212;2023-12-20T11:08:15;43238.53;;;-145.39;59.70
37078;BME280;22989;55.998;37.212;2023-12-20T11:10:55;43236.56;;;-145.39;59.72
37078;BME280;22989;55.998;37.212;2023-12-20T11:13:30;43211.19;;;-145.39;59.72
37078;BME280;22989;55.998;37.212;2023-12-20T11:16:00;43136.97;;;-145.39;59.52
37078;BME280;22989;55.998;37.212;2023-12-20T11:18:29;43035.44;;;-145.39;59.70
37078;BME280;22989;55.998;37.212;2023-12-20T11:21:02;42990.50;;;-145.39;59.69
37078;BME280;22989;55.998;37.212;2023-12-20T11:23:30;42920.22;;;-145.39;59.59
37078;BME280;22989;55.998;37.212;2023-12-20T11:25:57;42849.91;;;-145.39;59.59
37078;BME280;22989;55.998;37.212;2023-12-20T11:28:26;42713.22;;;-145.39;59.57
37078;BME280;22989;55.998;37.212;2023-12-20T11:30:53;42607.78;;;-145.39;59.60
37078;BME280;22989;55.998;37.212;2023-12-20T11:33:27;42564.81;;;-145.39;59.54
37078;BME280;22989;55.998;37.212;2023-12-20T11:35:59;42545.28;;;-145.39;59.62
37078;BME280;22989;55.998;37.212;2023-12-20T11:38:25;42596.06;;;-145.39;59.61
37078;BME280;22989;55.998;37.212;2023-12-20T11:40:53;42609.72;;;-145.39;59.87
37078;BME280;22989;55.998;37.212;2023-12-20T11:43:36;42492.56;;;-145.39;59.72
37078;BME280;22989;55.998;37.212;2023-12-20T11:46:08;42465.25;;;-145.39;59.62
37078;BME280;22989;55.998;37.212;2023-12-20T11:48:36;42473.03;;;-145.39;59.75
37078;BME280;22989;55.998;37.212;2023-12-20T11:51:02;42519.91;;;-145.39;59.61
37078;BME280;22989;55.998;37.212;2023-12-20T11:53:29;42527.72;;;-145.39;59.72
37078;BME280;22989;55.998;37.212;2023-12-20T11:55:56;42662.44;;;-145.39;59.60
37078;BME280;22989;55.998;37.212;2023-12-20T11:58:22;42648.78;;;-145.39;59.73
37078;BME280;22989;55.998;37.212;2023-12-20T12:00:49;42621.44;;;-145.39;59.73
37078;BME280;22989;55.998;37.212;2023-12-20T12:03:15;42586.31;;;-145.39;59.78
37078;BME280;22989;55.998;37.212;2023-12-20T12:05:41;42568.72;;;-145.39;59.94
37078;BME280;22989;55.998;37.212;2023-12-20T12:08:06;42736.66;;;-145.39;59.79
37078;BME280;22989;55.998;37.212;2023-12-20T12:10:33;42734.69;;;-145.39;59.74
37078;BME280;22989;55.998;37.212;2023-12-20T12:12:59;42736.66;;;-145.39;59.67
37078;BME280;22989;55.998;37.212;2023-12-20T12:15:26;42701.50;;;-145.39;59.77
37078;BME280;22989;55.998;37.212;2023-12-20T12:17:55;42732.75;;;-145.39;59.62
37078;BME280;22989;55.998;37.212;2023-12-20T12:20:22;42748.38;;;-145.39;59.86
37078;BME280;22989;55.998;37.212;2023-12-20T12:23:02;42734.69;;;-145.39;59.61
37078;BME280;22989;55.998;37.212;2023-12-20T12:25:29;42734.69;;;-145.39;59.75
37078;BME280;22989;55.998;37.212;2023-12-20T12:27:59;42736.66;;;-145.39;59.47